Time;durP1;ratioP1;P1;durP2;ratioP2;P2;SDS_P1;SDS_P2;PMS_P1;PMS_P2;Temp;Humidity;BMP_temperature;BMP_pressure;BME280_temperature;BME280_humidity;BME280_pressure;Samples;Min_cycle;Max_cycle;Signal;HPM_P1;HPM_P2
2023/07/21 00:00:18;;;;;;;7.25;4.22;;;11.70;99.90;;;;;;5131300;27;20038;-58
2023/07/21 00:02:45;;;;;;;8.52;4.45;;;11.70;99.90;;;;;;5132070;27;20046;-58
2023/07/21 00:05:11;;;;;;;7.05;4.70;;;11.50;99.90;;;;;;5132171;27;20064;-58
2023/07/21 00:07:37;;;;;;;7.30;4.90;;;11.70;99.90;;;;;;5112921;27;20035;-58
2023/07/21 00:10:07;;;;;;;9.95;5.25;;;11.50;99.90;;;;;;5115758;27;20159;-58
2023/07/21 00:12:40;;;;;;;8.95;4.40;;;11.60;99.90;;;;;;5134043;27;20074;-58
2023/07/21 00:15:07;;;;;;;7.20;4.75;;;11.60;99.90;;;;;;5134748;27;20049;-58
2023/07/21 00:17:34;;;;;;;7.07;4.53;;;11.40;99.90;;;;;;5134109;27;20042;-57
2023/07/21 00:20:10;;;;;;;6.93;4.82;;;11.40;99.90;;;;;;5134871;27;20269;-58
2023/07/21 00:22:40;;;;;;;8.38;5.45;;;11.40;99.90;;;;;;5134275;27;20322;-58
2023/07/21 00:25:10;;;;;;;8.07;5.60;;;11.40;99.90;;;;;;5133155;27;20111;-58
2023/07/21 00:27:37;;;;;;;7.15;4.90;;;11.50;99.90;;;;;;5135013;27;20063;-58
2023/07/21 00:30:07;;;;;;;7.07;4.78;;;11.30;99.90;;;;;;5134742;27;20474;-58
2023/07/21 00:32:33;;;;;;;5.72;3.60;;;11.50;99.90;;;;;;5102046;27;20091;-58
2023/07/21 00:34:59;;;;;;;5.13;3.30;;;11.50;99.90;;;;;;5133675;27;20306;-58
2023/07/21 00:37:25;;;;;;;6.30;3.47;;;11.30;99.90;;;;;;5133947;27;20076;-58
2023/07/21 00:39:50;;;;;;;5.53;3.20;;;12.60;99.90;;;;;;5134009;27;20499;-58
2023/07/21 00:42:16;;;;;;;6.38;3.35;;;11.40;99.90;;;;;;5116696;27;20137;-58
2023/07/21 00:44:42;;;;;;;6.40;3.70;;;11.30;99.90;;;;;;5133930;27;20042;-58
2023/07/21 00:47:07;;;;;;;5.43;3.25;;;11.10;99.90;;;;;;5133821;27;20151;-58
2023/07/21 00:49:34;;;;;;;4.07;2.60;;;11.20;99.90;;;;;;5132562;27;20382;-58
2023/07/21 00:51:59;;;;;;;5.28;2.28;;;11.10;99.90;;;;;;5134710;27;20042;-58
2023/07/21 00:54:25;;;;;;;6.47;2.70;;;11.10;99.90;;;;;;5134228;27;20307;-57
2023/07/21 00:56:53;;;;;;;5.50;3.10;;;11.00;99.90;;;;;;5133337;27;20031;-58
2023/07/21 00:59:18;;;;;;;4.00;2.50;;;10.80;99.90;;;;;;5132804;27;20054;-58
2023/07/21 01:01:44;;;;;;;5.13;3.20;;;10.90;99.90;;;;;;5135246;27;20038;-58
2023/07/21 01:04:10;;;;;;;7.22;3.90;;;10.70;99.90;;;;;;5134314;27;20042;-58
2023/07/21 01:06:38;;;;;;;6.22;4.00;;;10.80;99.90;;;;;;5134913;27;20601;-57
2023/07/21 01:09:06;;;;;;;6.97;3.67;;;10.90;99.90;;;;;;5134570;27;20053;-58
2023/07/21 01:11:34;;;;;;;5.35;3.65;;;10.80;99.90;;;;;;5134302;27;20043;-58
2023/07/21 01:14:04;;;;;;;7.78;3.72;;;10.70;99.90;;;;;;5116501;27;20444;-57
2023/07/21 01:16:34;;;;;;;6.20;2.90;;;10.80;99.90;;;;;;5135214;27;20038;-57
2023/07/21 01:19:01;;;;;;;4.78;2.28;;;10.70;99.90;;;;;;5134447;27;20362;-57
2023/07/21 01:21:53;;;;;;;6.40;2.80;;;10.70;99.90;;;;;;5133252;27;20203;-58
2023/07/21 01:24:37;;;;;;;4.68;2.90;;;10.60;99.90;;;;;;5123025;27;20103;-57
2023/07/21 01:27:05;;;;;;;6.07;2.42;;;10.50;99.90;;;;;;5133268;27;20042;-58
2023/07/21 01:29:34;;;;;;;5.43;2.58;;;10.80;99.90;;;;;;5134158;27;20031;-57
2023/07/21 01:32:04;;;;;;;5.07;3.35;;;10.20;99.90;;;;;;5114450;27;20080;-58
2023/07/21 01:34:32;;;;;;;5.00;3.33;;;10.40;99.90;;;;;;5133417;27;20066;-58
2023/07/21 01:36:59;;;;;;;8.48;3.05;;;10.40;99.90;;;;;;5133639;27;20061;-58
2023/07/21 01:39:27;;;;;;;6.80;3.58;;;9.40;99.90;;;;;;5132412;27;20074;-58
2023/07/21 01:41:53;;;;;;;5.65;3.47;;;10.30;99.90;;;;;;5131670;27;20057;-58
2023/07/21 01:44:21;;;;;;;4.93;2.72;;;10.20;99.90;;;;;;5132377;27;20387;-59
2023/07/21 01:46:48;;;;;;;6.13;3.00;;;10.30;99.90;;;;;;5133718;27;20045;-58
2023/07/21 01:49:15;;;;;;;7.05;3.47;;;10.30;99.90;;;;;;5131796;27;20456;-58
2023/07/21 01:51:42;;;;;;;6.93;4.13;;;10.10;99.90;;;;;;5133102;27;20073;-58
2023/07/21 01:54:16;;;;;;;8.25;3.97;;;10.30;99.90;;;;;;5132091;27;20034;-58
2023/07/21 01:56:47;;;;;;;5.25;3.42;;;10.20;99.90;;;;;;5133685;27;20265;-58
2023/07/21 01:59:15;;;;;;;5.03;2.88;;;10.40;99.90;;;;;;5132344;27;20110;-58
2023/07/21 02:01:42;;;;;;;5.00;3.00;;;10.20;99.90;;;;;;5132489;27;20035;-59
2023/07/21 02:04:08;;;;;;;5.57;3.13;;;10.30;99.90;;;;;;5132880;27;20073;-58
2023/07/21 02:06:34;;;;;;;5.40;3.55;;;10.60;99.90;;;;;;5116111;27;20158;-58
2023/07/21 02:09:00;;;;;;;7.28;3.90;;;10.30;99.90;;;;;;5131305;27;20043;-58
2023/07/21 02:11:25;;;;;;;6.78;4.47;;;10.10;99.90;;;;;;5113570;27;20674;-58
2023/07/21 02:13:51;;;;;;;6.75;3.83;;;10.30;99.90;;;;;;5132651;27;20089;-58
2023/07/21 02:16:17;;;;;;;6.65;3.72;;;10.50;99.90;;;;;;5132181;27;20080;-58
2023/07/21 02:18:43;;;;;;;8.90;4.32;;;10.30;99.90;;;;;;5131785;27;20065;-58
2023/07/21 02:21:09;;;;;;;5.18;3.13;;;10.20;99.90;;;;;;5132712;27;20050;-58
2023/07/21 02:23:34;;;;;;;7.63;3.60;;;10.30;99.90;;;;;;5133309;27;20565;-58
2023/07/21 02:26:00;;;;;;;5.80;3.97;;;10.10;99.90;;;;;;5134588;27;20039;-58
2023/07/21 02:28:26;;;;;;;6.88;4.72;;;10.00;99.90;;;;;;5133509;27;20023;-58
2023/07/21 02:31:03;;;;;;;8.07;4.20;;;10.00;99.90;;;;;;5132931;27;20050;-57
2023/07/21 02:33:30;;;;;;;8.65;4.25;;;10.10;99.90;;;;;;5132227;27;20049;-57
2023/07/21 02:36:00;;;;;;;6.80;4.65;;;9.80;99.90;;;;;;5132283;27;20107;-58
2023/07/21 02:38:27;;;;;;;8.23;3.72;;;10.00;99.90;;;;;;5131540;27;20027;-58
2023/07/21 02:40:55;;;;;;;6.15;3.50;;;10.10;99.90;;;;;;5132520;27;20713;-58
2023/07/21 02:43:23;;;;;;;5.18;2.95;;;10.00;99.90;;;;;;5132545;27;20035;-57
2023/07/21 02:45:53;;;;;;;4.60;2.50;;;10.60;99.90;;;;;;5132760;27;20063;-58
2023/07/21 02:48:20;;;;;;;4.32;2.42;;;9.90;99.90;;;;;;5132877;27;20050;-58
2023/07/21 02:50:51;;;;;;;4.78;3.42;;;9.90;99.90;;;;;;5132329;27;20042;-58
2023/07/21 02:53:18;;;;;;;6.30;4.28;;;9.90;99.90;;;;;;5132028;27;20487;-58
2023/07/21 02:55:45;;;;;;;6.15;3.58;;;10.10;99.90;;;;;;5130940;27;20034;-58
2023/07/21 02:58:13;;;;;;;5.95;3.30;;;9.60;99.90;;;;;;5132545;27;20087;-57
2023/07/21 03:00:40;;;;;;;5.63;3.30;;;9.70;99.90;;;;;;5132684;27;20042;-57
2023/07/21 03:03:07;;;;;;;5.72;3.08;;;9.60;99.90;;;;;;5132014;27;20046;-58
2023/07/21 03:05:34;;;;;;;4.78;3.08;;;9.70;99.90;;;;;;5111026;27;20053;-58
2023/07/21 03:08:00;;;;;;;5.88;3.30;;;9.70;99.90;;;;;;5129935;27;20049;-57
2023/07/21 03:10:26;;;;;;;7.20;4.32;;;9.50;99.90;;;;;;5131029;27;20027;-57
2023/07/21 03:12:52;;;;;;;4.45;3.15;;;9.60;99.90;;;;;;5131978;27;20051;-57
2023/07/21 03:15:17;;;;;;;5.38;3.80;;;9.80;99.90;;;;;;5129537;27;20042;-57
2023/07/21 03:17:43;;;;;;;6.43;3.50;;;9.90;99.90;;;;;;5132379;27;20460;-57
2023/07/21 03:20:14;;;;;;;5.70;3.90;;;9.70;99.90;;;;;;5131451;27;20042;-57
2023/07/21 03:22:42;;;;;;;6.65;3.97;;;9.70;99.90;;;;;;5131223;27;20215;-58
2023/07/21 03:25:09;;;;;;;5.63;3.55;;;9.90;99.90;;;;;;5131379;27;20494;-57
2023/07/21 03:27:35;;;;;;;5.93;3.25;;;10.00;99.90;;;;;;5130540;27;20043;-58
2023/07/21 03:30:02;;;;;;;6.00;4.10;;;9.90;99.90;;;;;;5129508;27;20119;-57
2023/07/21 03:32:28;;;;;;;8.93;4.93;;;9.60;99.90;;;;;;5113684;27;20546;-57
2023/07/21 03:34:57;;;;;;;9.20;5.70;;;9.90;99.90;;;;;;5113043;27;20058;-58
2023/07/21 03:37:26;;;;;;;7.65;4.70;;;9.70;99.90;;;;;;5131126;27;20035;-57
2023/07/21 03:39:52;;;;;;;5.70;3.80;;;9.90;99.90;;;;;;5130403;27;20499;-58
2023/07/21 03:42:18;;;;;;;8.38;4.60;;;9.80;99.90;;;;;;5130684;27;20563;-57
2023/07/21 03:44:51;;;;;;;9.07;4.78;;;9.80;99.90;;;;;;5134780;27;20046;-57
2023/07/21 03:47:17;;;;;;;9.20;4.90;;;10.00;99.90;;;;;;5135096;27;20050;-58
2023/07/21 03:49:47;;;;;;;9.05;5.30;;;10.00;99.90;;;;;;5135256;27;20050;-58
2023/07/21 03:52:13;;;;;;;6.55;4.63;;;10.10;99.90;;;;;;5136210;27;20042;-57
2023/07/21 03:54:40;;;;;;;10.48;5.20;;;9.90;99.90;;;;;;5134352;27;20472;-58
2023/07/21 03:57:06;;;;;;;8.57;5.15;;;10.10;99.90;;;;;;5135352;27;20398;-57
2023/07/21 03:59:32;;;;;;;9.55;5.63;;;10.10;99.90;;;;;;5114995;27;20126;-58
2023/07/21 04:01:58;;;;;;;9.38;5.45;;;10.20;99.90;;;;;;5135879;27;20420;-57
2023/07/21 04:04:24;;;;;;;8.50;5.60;;;10.40;99.90;;;;;;5135398;27;20531;-58
2023/07/21 04:06:49;;;;;;;8.55;5.00;;;10.30;99.90;;;;;;5135774;27;20550;-58
2023/07/21 04:09:15;;;;;;;8.20;4.50;;;10.40;99.90;;;;;;5135189;27;20094;-57
2023/07/21 04:11:42;;;;;;;6.07;4.00;;;10.40;99.90;;;;;;5133451;27;20038;-58
2023/07/21 04:14:08;;;;;;;8.98;4.45;;;10.50;99.90;;;;;;5133087;27;20434;-58
2023/07/21 04:16:34;;;;;;;6.13;3.80;;;10.20;99.90;;;;;;5133872;27;20620;-58
2023/07/21 04:18:59;;;;;;;7.15;4.30;;;10.40;99.90;;;;;;5115528;27;20091;-58
2023/07/21 04:21:25;;;;;;;8.75;5.00;;;10.50;99.90;;;;;;5134080;27;20079;-58
2023/07/21 04:23:52;;;;;;;9.40;5.30;;;10.40;99.90;;;;;;5134002;27;20539;-57
2023/07/21 04:26:18;;;;;;;8.32;4.13;;;10.50;99.90;;;;;;5134020;27;20445;-59
2023/07/21 04:28:44;;;;;;;9.18;4.18;;;10.50;99.90;;;;;;5134303;27;20047;-57
2023/07/21 04:31:10;;;;;;;6.88;3.72;;;10.60;99.90;;;;;;5134076;27;20064;-58
2023/07/21 04:33:36;;;;;;;10.25;4.35;;;10.60;99.90;;;;;;5134932;27;20243;-58
2023/07/21 04:36:02;;;;;;;8.80;4.03;;;10.60;99.90;;;;;;5115163;27;20042;-57
2023/07/21 04:38:28;;;;;;;10.20;5.38;;;10.60;99.90;;;;;;5134874;27;20372;-58
2023/07/21 04:40:54;;;;;;;8.75;4.72;;;10.60;99.90;;;;;;5133587;27;20065;-58
2023/07/21 04:43:20;;;;;;;8.38;4.45;;;10.60;99.90;;;;;;5132834;27;20332;-58
2023/07/21 04:45:46;;;;;;;8.45;5.30;;;10.90;99.90;;;;;;5116749;27;20067;-58
2023/07/21 04:48:12;;;;;;;10.95;4.88;;;10.70;99.90;;;;;;5114490;27;20169;-57
2023/07/21 04:50:40;;;;;;;7.18;4.72;;;10.70;99.90;;;;;;5132330;27;20499;-57
2023/07/21 04:53:06;;;;;;;10.18;5.38;;;10.90;99.90;;;;;;5131355;27;20130;-58
2023/07/21 04:55:32;;;;;;;10.02;5.40;;;11.20;99.90;;;;;;5133700;27;20046;-58
2023/07/21 04:57:57;;;;;;;8.00;5.60;;;11.00;99.90;;;;;;5132613;27;20042;-58
2023/07/21 05:00:23;;;;;;;9.40;6.13;;;11.40;99.90;;;;;;5114138;27;20103;-57
2023/07/21 05:02:49;;;;;;;10.55;6.75;;;11.30;99.90;;;;;;5132830;27;20046;-58
2023/07/21 05:05:15;;;;;;;8.88;6.13;;;9.80;99.90;;;;;;5134432;27;20567;-58
2023/07/21 05:07:40;;;;;;;13.82;7.07;;;11.70;99.90;;;;;;5133327;27;20464;-58
2023/07/21 05:10:06;;;;;;;10.23;6.05;;;11.70;99.90;;;;;;5132571;27;20041;-58
2023/07/21 05:12:32;;;;;;;10.63;6.68;;;11.90;99.90;;;;;;5134700;27;20043;-58
2023/07/21 05:14:58;;;;;;;11.85;6.70;;;11.80;99.90;;;;;;5134539;27;20031;-58
2023/07/21 05:17:24;;;;;;;9.40;6.55;;;12.00;99.90;;;;;;5134048;27;20039;-58
2023/07/21 05:19:50;;;;;;;11.15;6.65;;;12.30;99.90;;;;;;5134298;27;20050;-58
2023/07/21 05:22:15;;;;;;;10.55;6.40;;;12.10;99.90;;;;;;5134194;27;20069;-58
2023/07/21 05:24:41;;;;;;;9.35;6.63;;;12.00;99.90;;;;;;5133016;27;20050;-58
2023/07/21 05:27:07;;;;;;;9.25;5.95;;;12.20;99.90;;;;;;5133022;27;20138;-58
2023/07/21 05:29:34;;;;;;;10.45;6.47;;;12.30;99.90;;;;;;5132449;27;20395;-58
2023/07/21 05:32:01;;;;;;;9.75;5.97;;;12.30;99.90;;;;;;5131915;27;20054;-58
2023/07/21 05:34:26;;;;;;;10.73;6.80;;;12.30;99.90;;;;;;5133869;27;20046;-58
2023/07/21 05:36:52;;;;;;;8.82;6.40;;;12.30;99.90;;;;;;5132436;27;20047;-58
2023/07/21 05:39:18;;;;;;;9.15;6.28;;;12.20;99.90;;;;;;5133321;27;20091;-58
2023/07/21 05:41:43;;;;;;;9.80;6.43;;;12.50;99.90;;;;;;5132093;27;20048;-58
2023/07/21 05:44:10;;;;;;;9.98;6.25;;;12.60;99.90;;;;;;5131292;27;20034;-58
2023/07/21 05:46:39;;;;;;;9.35;6.43;;;12.60;99.90;;;;;;5131097;27;20051;-58
2023/07/21 05:49:06;;;;;;;11.35;5.95;;;12.70;99.90;;;;;;5131618;27;20072;-58
2023/07/21 05:51:32;;;;;;;13.77;6.32;;;12.80;99.90;;;;;;5132270;27;20050;-58
2023/07/21 05:53:57;;;;;;;11.88;6.50;;;13.10;99.90;;;;;;5132310;27;20050;-58
2023/07/21 05:56:23;;;;;;;9.65;5.63;;;13.30;99.90;;;;;;5131526;27;20042;-58
2023/07/21 05:58:49;;;;;;;13.07;6.75;;;13.50;99.90;;;;;;5131613;27;20035;-58
2023/07/21 06:01:15;;;;;;;10.02;5.97;;;13.60;99.90;;;;;;5132687;27;20403;-58
2023/07/21 06:03:41;;;;;;;10.55;5.85;;;13.80;99.90;;;;;;5113056;27;20037;-58
2023/07/21 06:06:06;;;;;;;13.18;5.28;;;13.90;99.90;;;;;;5132416;27;20499;-58
2023/07/21 06:08:34;;;;;;;9.77;4.82;;;14.20;99.90;;;;;;5131998;27;20070;-62
2023/07/21 06:11:00;;;;;;;12.70;5.55;;;14.30;99.90;;;;;;5130535;27;20407;-62
2023/07/21 06:13:29;;;;;;;11.50;5.50;;;14.40;99.90;;;;;;5130864;27;20515;-62
2023/07/21 06:15:55;;;;;;;10.48;5.63;;;14.50;99.90;;;;;;5130700;27;20057;-62
2023/07/21 06:18:21;;;;;;;11.35;5.00;;;14.60;99.90;;;;;;5132473;27;20034;-61
2023/07/21 06:20:50;;;;;;;9.05;4.63;;;14.90;99.90;;;;;;5112647;27;20057;-63
2023/07/21 06:23:16;;;;;;;8.75;5.18;;;15.00;99.90;;;;;;5130428;27;20042;-63
2023/07/21 06:25:42;;;;;;;11.48;5.43;;;14.90;99.90;;;;;;5129624;27;20401;-62
2023/07/21 06:28:07;;;;;;;14.27;5.03;;;15.30;99.90;;;;;;5130996;27;20031;-63
2023/07/21 06:30:33;;;;;;;8.68;4.18;;;15.80;99.90;;;;;;5130933;27;20051;-64
2023/07/21 06:32:59;;;;;;;10.98;4.82;;;16.30;99.90;;;;;;5131044;27;21445;-63
2023/07/21 06:35:25;;;;;;;11.45;4.10;;;15.70;99.90;;;;;;5132526;27;20042;-63
2023/07/21 06:37:50;;;;;;;6.82;3.67;;;16.80;99.90;;;;;;5130655;27;20035;-65
2023/07/21 06:40:17;;;;;;;6.93;3.33;;;17.00;99.90;;;;;;5110942;27;20038;-64
2023/07/21 06:42:44;;;;;;;8.90;3.30;;;17.20;99.90;;;;;;5131460;27;20050;-63
2023/07/21 06:45:11;;;;;;;5.90;2.85;;;17.20;99.90;;;;;;5112468;27;20590;-62
2023/07/21 06:47:37;;;;;;;7.55;3.20;;;17.20;99.90;;;;;;5108997;27;20083;-62
2023/07/21 06:50:04;;;;;;;6.50;2.65;;;17.20;99.90;;;;;;5131222;27;20404;-63
2023/07/21 06:52:30;;;;;;;5.20;2.13;;;17.30;99.90;;;;;;5132185;27;20455;-63
2023/07/21 06:54:58;;;;;;;9.23;3.20;;;17.50;99.90;;;;;;5131587;27;21049;-63
2023/07/21 06:57:24;;;;;;;8.25;3.10;;;18.20;99.90;;;;;;5131769;27;20039;-63
2023/07/21 06:59:50;;;;;;;7.53;3.30;;;18.10;99.90;;;;;;5131364;27;20050;-63
2023/07/21 07:02:15;;;;;;;6.43;3.35;;;18.40;99.90;;;;;;5131275;27;20423;-63
2023/07/21 07:04:41;;;;;;;9.02;3.17;;;18.80;99.90;;;;;;5132104;27;20360;-63
2023/07/21 07:07:07;;;;;;;6.25;2.97;;;19.00;99.90;;;;;;5131565;27;20046;-64
2023/07/21 07:09:33;;;;;;;4.70;2.58;;;19.70;99.90;;;;;;5131176;27;20565;-65
2023/07/21 07:11:59;;;;;;;5.93;2.47;;;20.70;99.90;;;;;;5132898;27;20047;-64
2023/07/21 07:14:26;;;;;;;7.43;2.75;;;21.60;99.90;;;;;;5112703;27;20039;-64
2023/07/21 07:16:52;;;;;;;5.53;2.70;;;22.30;99.90;;;;;;5130345;27;20042;-64
2023/07/21 07:19:19;;;;;;;7.43;2.10;;;23.10;99.90;;;;;;5129725;27;20054;-65
2023/07/21 07:21:45;;;;;;;4.35;1.90;;;23.80;99.90;;;;;;5131053;27;20050;-65
2023/07/21 07:24:10;;;;;;;4.72;2.03;;;24.70;99.90;;;;;;5129077;27;20127;-64
2023/07/21 07:26:36;;;;;;;2.95;1.67;;;25.00;99.90;;;;;;5130731;27;20048;-64
2023/07/21 07:29:05;;;;;;;6.85;2.05;;;24.70;99.90;;;;;;5129930;27;20046;-65
2023/07/21 07:31:31;;;;;;;5.38;1.65;;;24.40;99.90;;;;;;5131745;27;20039;-65
2023/07/21 07:33:57;;;;;;;4.78;1.80;;;25.30;99.90;;;;;;5131348;27;20505;-65
2023/07/21 07:36:23;;;;;;;3.53;1.45;;;26.00;99.90;;;;;;5130315;27;20046;-65
2023/07/21 07:38:49;;;;;;;3.40;1.42;;;26.60;99.90;;;;;;5110909;27;20035;-65
2023/07/21 07:41:15;;;;;;;2.88;1.30;;;26.90;99.90;;;;;;5131650;27;20034;-66
2023/07/21 07:43:40;;;;;;;2.70;1.35;;;27.40;99.90;;;;;;5130493;27;20401;-66
2023/07/21 07:46:07;;;;;;;3.85;1.63;;;27.30;99.90;;;;;;5130539;27;20140;-66
2023/07/21 07:48:36;;;;;;;2.00;1.10;;;27.60;99.90;;;;;;5130412;27;20073;-66
2023/07/21 07:51:04;;;;;;;3.22;1.40;;;27.70;99.90;;;;;;5132567;27;20462;-66
2023/07/21 07:53:35;;;;;;;2.28;1.20;;;28.20;99.90;;;;;;5132349;27;20366;-66
2023/07/21 07:56:01;;;;;;;2.55;1.13;;;28.70;99.90;;;;;;5130993;27;20411;-66
2023/07/21 07:58:27;;;;;;;2.85;1.42;;;29.10;99.90;;;;;;5104449;27;20109;-67
2023/07/21 08:00:57;;;;;;;4.70;1.75;;;29.20;99.90;;;;;;5129621;27;20412;-67
2023/07/21 08:03:24;;;;;;;4.20;1.50;;;29.00;99.90;;;;;;5129243;27;20045;-67
2023/07/21 08:05:50;;;;;;;3.70;1.60;;;29.10;99.90;;;;;;5130845;27;20107;-68
2023/07/21 08:08:21;;;;;;;2.80;1.38;;;29.40;99.90;;;;;;5131138;27;20056;-68
2023/07/21 08:10:47;;;;;;;3.38;1.70;;;29.60;99.90;;;;;;5131328;27;20130;-68
2023/07/21 08:13:13;;;;;;;2.67;1.30;;;29.50;99.90;;;;;;5110946;27;20038;-68
2023/07/21 08:15:43;;;;;;;2.28;1.10;;;29.20;99.90;;;;;;5129825;27;20407;-67
2023/07/21 08:18:11;;;;;;;1.95;1.10;;;29.70;99.90;;;;;;5112651;27;20061;-68
2023/07/21 08:20:38;;;;;;;3.38;1.10;;;28.80;99.90;;;;;;5130618;27;20042;-67
2023/07/21 08:23:04;;;;;;;4.07;1.30;;;28.00;99.90;;;;;;5129793;27;20034;-67
2023/07/21 08:25:30;;;;;;;3.78;1.55;;;27.30;99.90;;;;;;5129969;27;20031;-67
2023/07/21 08:27:55;;;;;;;4.15;1.50;;;26.70;99.90;;;;;;5129708;27;20083;-66
2023/07/21 08:30:21;;;;;;;5.13;1.20;;;26.10;99.90;;;;;;5115483;27;20067;-67
2023/07/21 08:32:47;;;;;;;3.95;1.20;;;25.60;99.90;;;;;;5115481;27;20125;-67
2023/07/21 08:35:13;;;;;;;3.78;1.40;;;25.00;99.90;;;;;;5117449;27;20042;-66
2023/07/21 08:37:38;;;;;;;3.30;0.98;;;24.40;99.90;;;;;;5136286;27;20611;-67
2023/07/21 08:40:06;;;;;;;2.92;0.90;;;23.60;99.90;;;;;;5134153;27;20075;-66
2023/07/21 08:42:33;;;;;;;2.58;1.00;;;23.10;99.90;;;;;;5132840;27;20031;-66
2023/07/21 08:45:02;;;;;;;2.85;1.20;;;22.50;99.90;;;;;;5134218;27;20403;-65
2023/07/21 08:47:28;;;;;;;2.65;1.08;;;21.90;99.90;;;;;;5134181;27;20046;-65
2023/07/21 08:49:54;;;;;;;2.97;1.25;;;21.40;99.90;;;;;;5132771;27;20062;-65
2023/07/21 08:52:19;;;;;;;4.13;1.55;;;21.40;99.90;;;;;;5134150;27;20126;-65
2023/07/21 08:54:45;;;;;;;4.57;1.50;;;21.50;99.90;;;;;;5114000;27;20034;-65
2023/07/21 08:57:12;;;;;;;3.30;1.52;;;21.20;99.90;;;;;;5131958;27;20043;-65
2023/07/21 08:59:38;;;;;;;3.03;1.50;;;21.10;99.90;;;;;;5133898;27;20043;-65
2023/07/21 09:02:04;;;;;;;4.35;1.40;;;21.10;99.90;;;;;;5133588;27;20080;-65
2023/07/21 09:04:30;;;;;;;4.57;1.40;;;20.90;99.90;;;;;;5113141;27;20045;-65
2023/07/21 09:06:58;;;;;;;3.05;1.30;;;20.90;99.90;;;;;;5134751;27;20099;-65
2023/07/21 09:09:25;;;;;;;2.72;1.30;;;20.90;99.90;;;;;;5132863;27;20033;-64
2023/07/21 09:12:01;;;;;;;2.92;1.23;;;21.10;99.90;;;;;;5132931;27;20138;-64
2023/07/21 09:14:44;;;;;;;2.38;1.20;;;21.70;99.90;;;;;;5131812;27;20477;-65
2023/07/21 09:17:12;;;;;;;2.47;1.15;;;22.50;99.90;;;;;;5130639;27;20557;-64
2023/07/21 09:19:42;;;;;;;5.28;1.35;;;23.00;99.90;;;;;;5131525;27;20186;-64
2023/07/21 09:22:09;;;;;;;5.13;1.10;;;23.10;99.90;;;;;;5131071;27;20061;-64
2023/07/21 09:24:37;;;;;;;2.80;0.90;;;23.00;99.90;;;;;;5132086;27;20049;-64
2023/07/21 09:27:21;;;;;;;2.40;0.90;;;23.30;99.90;;;;;;5131650;27;20542;-64
2023/07/21 09:29:47;;;;;;;5.65;0.90;;;23.50;99.90;;;;;;5131770;27;20472;-64
2023/07/21 09:32:17;;;;;;;2.25;0.98;;;23.20;99.90;;;;;;5134165;27;20035;-65
2023/07/21 09:35:02;;;;;;;1.50;0.90;;;23.20;99.90;;;;;;5132552;27;20084;-64
2023/07/21 09:37:30;;;;;;;1.80;0.90;;;23.00;99.90;;;;;;5132929;27;20042;-64
2023/07/21 09:39:58;;;;;;;2.15;0.73;;;22.80;99.90;;;;;;5112848;27;20508;-64
2023/07/21 09:42:26;;;;;;;2.45;1.02;;;22.80;99.90;;;;;;5130267;27;20566;-64
2023/07/21 09:44:53;;;;;;;2.35;0.90;;;22.60;99.90;;;;;;5131636;27;20038;-64
2023/07/21 09:47:19;;;;;;;2.00;0.98;;;22.30;99.90;;;;;;5132612;27;20031;-64
2023/07/21 09:49:46;;;;;;;2.92;1.23;;;22.10;99.90;;;;;;5132009;27;20047;-64
2023/07/21 09:52:15;;;;;;;3.00;1.27;;;22.00;99.90;;;;;;5131026;27;20066;-64
2023/07/21 09:54:48;;;;;;;3.10;1.13;;;21.90;99.90;;;;;;5131419;27;20039;-64
2023/07/21 09:57:22;;;;;;;2.28;1.17;;;21.80;99.90;;;;;;5131024;27;20039;-66
2023/07/21 09:59:49;;;;;;;4.60;1.27;;;22.20;99.90;;;;;;5132614;27;20034;-63
2023/07/21 10:02:16;;;;;;;2.65;1.20;;;22.40;99.90;;;;;;5132699;27;20270;-63
2023/07/21 10:04:45;;;;;;;3.13;1.40;;;22.80;99.90;;;;;;5132045;27;20046;-63
2023/07/21 10:07:12;;;;;;;2.38;1.20;;;23.00;99.90;;;;;;5133837;27;20499;-64
2023/07/21 10:09:39;;;;;;;5.00;1.35;;;22.90;99.90;;;;;;5114479;27;20039;-63
2023/07/21 10:12:16;;;;;;;3.67;1.55;;;22.80;99.90;;;;;;5132790;27;20449;-63
2023/07/21 10:14:44;;;;;;;3.45;1.33;;;20.80;99.90;;;;;;5131094;27;20804;-63
2023/07/21 10:17:11;;;;;;;10.38;1.60;;;22.50;99.90;;;;;;5132244;27;20046;-64
2023/07/21 10:19:41;;;;;;;3.38;1.20;;;22.10;99.90;;;;;;5130240;27;20046;-65
2023/07/21 10:22:11;;;;;;;3.53;1.20;;;21.60;99.90;;;;;;5132252;27;20050;-65
2023/07/21 10:24:44;;;;;;;4.72;1.00;;;21.30;99.90;;;;;;5130447;27;20141;-65
2023/07/21 10:27:19;;;;;;;2.35;1.10;;;21.00;99.90;;;;;;5131295;27;20058;-65
2023/07/21 10:29:45;;;;;;;2.38;1.00;;;21.30;99.90;;;;;;5130999;27;20046;-65
2023/07/21 10:32:10;;;;;;;2.38;1.10;;;21.10;99.90;;;;;;5130580;27;20640;-65
2023/07/21 10:34:43;;;;;;;3.70;1.38;;;21.10;99.90;;;;;;5111648;27;20099;-65
2023/07/21 10:37:09;;;;;;;3.20;1.10;;;21.20;99.90;;;;;;5096466;27;20402;-65
2023/07/21 10:39:37;;;;;;;2.67;1.27;;;21.50;99.90;;;;;;5110988;27;20380;-65
2023/07/21 10:42:06;;;;;;;4.55;1.50;;;21.50;99.90;;;;;;5129877;27;20045;-66
2023/07/21 10:44:33;;;;;;;5.10;1.52;;;21.30;99.90;;;;;;5129955;27;20038;-65
2023/07/21 10:46:59;;;;;;;3.92;1.60;;;21.90;99.90;;;;;;5130313;27;20129;-65
2023/07/21 10:49:25;;;;;;;3.20;1.60;;;21.90;99.90;;;;;;5129850;27;20135;-65
2023/07/21 10:51:51;;;;;;;3.85;1.50;;;22.00;99.90;;;;;;5130828;27;20073;-65
2023/07/21 10:54:17;;;;;;;3.10;1.40;;;22.10;99.90;;;;;;5129964;27;20490;-64
2023/07/21 10:56:46;;;;;;;5.70;2.25;;;21.80;99.90;;;;;;5131463;27;20462;-65
2023/07/21 10:59:13;;;;;;;3.65;1.55;;;21.70;99.90;;;;;;5112301;27;20587;-65
2023/07/21 11:01:46;;;;;;;5.38;1.70;;;21.80;99.90;;;;;;5130015;27;20570;-65
2023/07/21 11:04:16;;;;;;;5.53;2.15;;;21.90;99.90;;;;;;5129140;27;20045;-65
2023/07/21 11:07:01;;;;;;;5.45;2.40;;;21.60;99.90;;;;;;5133114;27;20030;-62
2023/07/21 11:09:33;;;;;;;3.50;2.05;;;21.60;99.90;;;;;;5130609;27;20049;-60
2023/07/21 11:11:59;;;;;;;4.07;1.83;;;21.40;99.90;;;;;;5130939;27;20051;-60
2023/07/21 11:14:27;;;;;;;3.97;2.20;;;21.30;99.90;;;;;;5112462;27;20078;-60
2023/07/21 11:16:57;;;;;;;2.38;1.23;;;21.40;99.90;;;;;;5129916;27;20503;-61
2023/07/21 11:19:29;;;;;;;3.10;1.73;;;21.80;99.90;;;;;;5130983;27;20045;-60
2023/07/21 11:21:54;;;;;;;;;;;21.90;99.90;;;;;;5112513;27;20045;-61
2023/07/21 11:24:25;;;;;;;4.18;1.65;;;21.80;99.90;;;;;;5130536;27;19922;-60
2023/07/21 11:27:09;;;;;;;4.00;1.70;;;22.10;99.90;;;;;;5130532;27;20106;-61
2023/07/21 11:29:40;;;;;;;4.25;1.65;;;22.10;99.90;;;;;;5132831;27;20808;-60
2023/07/21 11:32:22;;;;;;;3.08;1.70;;;22.00;99.90;;;;;;5132165;27;20041;-60
2023/07/21 11:34:56;;;;;;;3.78;1.60;;;22.00;99.90;;;;;;5114617;27;20046;-60
2023/07/21 11:37:22;;;;;;;3.25;1.70;;;21.70;99.90;;;;;;5134061;27;20250;-60
2023/07/21 11:39:57;;;;;;;4.53;1.85;;;21.50;99.90;;;;;;5132597;27;20043;-60
2023/07/21 11:42:24;;;;;;;2.85;1.63;;;21.10;99.90;;;;;;5131708;27;20071;-61
2023/07/21 11:44:49;;;;;;;4.93;2.05;;;21.10;99.90;;;;;;5132447;27;20448;-60
2023/07/21 11:47:16;;;;;;;3.70;2.00;;;20.90;99.90;;;;;;5131198;27;20142;-60
2023/07/21 11:49:47;;;;;;;4.20;2.00;;;20.80;99.90;;;;;;5130270;27;20410;-61
2023/07/21 11:52:24;;;;;;;3.78;1.70;;;20.80;99.90;;;;;;5130363;27;20298;-60
2023/07/21 11:54:50;;;;;;;3.25;1.80;;;20.60;99.90;;;;;;5112826;27;20585;-60
2023/07/21 11:57:18;;;;;;;3.33;1.63;;;20.70;99.90;;;;;;5131671;27;20034;-61
2023/07/21 11:59:44;;;;;;;3.20;1.65;;;20.40;99.90;;;;;;5131170;27;20045;-60
2023/07/21 12:02:14;;;;;;;4.38;2.20;;;20.50;99.90;;;;;;5131480;27;20456;-60
2023/07/21 12:04:40;;;;;;;7.40;2.70;;;20.30;99.90;;;;;;5132866;27;20510;-60
2023/07/21 12:07:08;;;;;;;5.07;2.30;;;20.30;99.90;;;;;;5137833;27;20042;-60
2023/07/21 12:09:34;;;;;;;8.38;2.50;;;20.60;99.90;;;;;;5135101;27;20375;-61
2023/07/21 12:12:00;;;;;;;6.68;2.50;;;21.10;99.90;;;;;;5134003;27;20103;-60
2023/07/21 12:14:26;;;;;;;7.63;2.85;;;21.20;99.90;;;;;;5135563;27;20140;-61
2023/07/21 12:16:55;;;;;;;5.80;2.35;;;21.70;99.90;;;;;;5134564;27;20410;-60
2023/07/21 12:19:24;;;;;;;6.22;2.70;;;21.60;99.90;;;;;;5133705;27;20183;-61
2023/07/21 12:21:51;;;;;;;7.63;2.70;;;21.40;99.90;;;;;;5134184;27;20050;-61
2023/07/21 12:24:18;;;;;;;7.55;2.60;;;20.80;99.90;;;;;;5134113;27;20077;-61
2023/07/21 12:26:45;;;;;;;6.07;2.80;;;20.30;99.90;;;;;;5134492;27;20039;-60
2023/07/21 12:29:10;;;;;;;6.63;2.78;;;20.10;99.90;;;;;;5134173;27;20168;-60
2023/07/21 12:31:36;;;;;;;5.68;2.83;;;19.50;99.90;;;;;;5133428;27;20528;-61
2023/07/21 12:34:02;;;;;;;5.38;2.97;;;19.00;99.90;;;;;;5135919;27;20035;-60
2023/07/21 12:36:29;;;;;;;5.95;2.58;;;19.00;99.90;;;;;;5135398;27;20042;-61
2023/07/21 12:38:54;;;;;;;13.00;3.75;;;18.60;99.90;;;;;;5136760;27;20050;-57
2023/07/21 12:41:20;;;;;;;9.82;3.28;;;17.90;99.90;;;;;;5136888;27;20572;-59
2023/07/21 12:43:46;;;;;;;11.90;3.85;;;17.30;99.90;;;;;;5135747;27;20497;-57
2023/07/21 12:46:14;;;;;;;10.65;3.65;;;17.20;99.90;;;;;;5134455;27;20076;-57
2023/07/21 12:48:41;;;;;;;7.10;2.50;;;16.90;99.90;;;;;;5134611;27;20163;-57